createdAt,value
2018-03-06T00:02:21.860Z,17.70
2018-03-06T00:04:49.853Z,17.80
2018-03-06T00:07:17.860Z,19.75
2018-03-06T00:09:46.648Z,17.92
2018-03-06T00:12:14.640Z,21.10
2018-03-06T00:14:43.419Z,17.92
2018-03-06T00:17:11.441Z,18.92
2018-03-06T00:19:40.221Z,17.40
2018-03-06T00:22:09.737Z,21.08
2018-03-06T00:24:37.760Z,20.17
2018-03-06T00:27:05.748Z,17.75
2018-03-06T00:29:33.772Z,18.73
2018-03-06T00:32:01.776Z,20.80
2018-03-06T00:34:30.568Z,18.42
2018-03-06T00:36:58.652Z,17.20
2018-03-06T00:39:27.441Z,20.60
2018-03-06T00:41:55.466Z,18.90
2018-03-06T00:44:24.282Z,18.62
2018-03-06T00:46:52.245Z,21.33
2018-03-06T00:49:21.016Z,18.37
2018-03-06T00:51:49.020Z,21.00
2018-03-06T00:54:17.800Z,18.05
2018-03-06T00:56:45.796Z,19.02
2018-03-06T00:59:14.571Z,18.02
2018-03-06T01:01:45.686Z,20.12
2018-03-06T01:04:17.464Z,19.00
2018-03-06T01:06:47.045Z,19.98
2018-03-06T01:09:15.816Z,17.60
2018-03-06T01:11:43.829Z,21.30
2018-03-06T01:14:12.602Z,19.62
2018-03-06T01:16:40.613Z,20.08
2018-03-06T01:19:09.407Z,21.67
2018-03-06T01:21:37.409Z,20.33
2018-03-06T01:24:06.204Z,18.00
2018-03-06T01:26:34.971Z,16.73
2018-03-06T01:29:02.974Z,18.52
2018-03-06T01:31:30.982Z,20.88
2018-03-06T01:33:58.992Z,18.83
2018-03-06T01:36:26.985Z,19.15
2018-03-06T01:38:54.989Z,17.75
2018-03-06T01:41:23.006Z,18.75
2018-03-06T01:43:51.764Z,21.90
2018-03-06T01:46:19.765Z,21.67
2018-03-06T01:48:47.776Z,20.92
2018-03-06T01:51:15.776Z,14.85
2018-03-06T01:53:43.781Z,17.33
2018-03-06T01:56:11.788Z,19.70
2018-03-06T01:58:39.803Z,20.62
2018-03-06T02:01:08.587Z,18.85
2018-03-06T02:03:37.364Z,20.83
2018-03-06T02:06:05.369Z,19.25
2018-03-06T02:08:34.256Z,22.87
2018-03-06T02:11:02.263Z,21.62
2018-03-06T02:13:31.023Z,21.48
2018-03-06T02:15:59.035Z,22.05
2018-03-06T02:18:27.053Z,18.60
2018-03-06T02:20:55.053Z,17.50
2018-03-06T02:23:23.063Z,17.02
2018-03-06T02:25:51.075Z,19.52
2018-03-06T02:28:19.834Z,17.83
2018-03-06T02:30:47.843Z,19.48
2018-03-06T02:33:15.856Z,16.48
2018-03-06T02:35:44.708Z,16.67
2018-03-06T02:38:12.725Z,14.93
2018-03-06T02:40:41.515Z,19.52
2018-03-06T02:43:09.532Z,18.80
2018-03-06T02:45:37.548Z,21.02
2018-03-06T02:48:05.554Z,18.50
2018-03-06T02:50:33.544Z,18.37
2018-03-06T02:53:01.557Z,20.15
2018-03-06T02:55:29.573Z,16.85
2018-03-06T02:57:57.569Z,17.15
2018-03-06T03:00:25.571Z,18.12
2018-03-06T03:02:53.585Z,17.85
2018-03-06T03:05:22.347Z,20.00
2018-03-06T03:07:51.864Z,16.30
2018-03-06T03:10:19.880Z,16.15
2018-03-06T03:12:48.642Z,17.70
2018-03-06T03:15:16.649Z,20.95
2018-03-06T03:17:44.656Z,16.20
2018-03-06T03:20:13.424Z,18.02
2018-03-06T03:22:41.454Z,16.33
2018-03-06T03:25:09.462Z,17.12
2018-03-06T03:27:37.464Z,17.00
2018-03-06T03:30:05.485Z,15.13
2018-03-06T03:32:34.260Z,19.65
2018-03-06T03:35:02.279Z,14.40
2018-03-06T03:37:31.053Z,19.92
2018-03-06T03:39:59.836Z,16.05
2018-03-06T03:42:27.840Z,17.02
2018-03-06T03:44:56.615Z,16.15
2018-03-06T03:47:24.637Z,19.10
2018-03-06T03:49:53.490Z,13.80
2018-03-06T03:52:21.504Z,15.05
2018-03-06T03:54:49.517Z,16.50
2018-03-06T03:57:17.532Z,18.42
2018-03-06T03:59:45.535Z,16.60
2018-03-06T04:02:13.548Z,13.20
2018-03-06T04:04:42.319Z,22.02
2018-03-06T04:07:10.353Z,17.87
2018-03-06T04:09:38.369Z,15.95
2018-03-06T04:12:06.374Z,15.40
2018-03-06T04:14:34.389Z,18.85
2018-03-06T04:17:02.406Z,16.30
2018-03-06T04:19:30.409Z,17.95
2018-03-06T04:21:58.416Z,16.08
2018-03-06T04:24:27.201Z,15.40
2018-03-06T04:26:55.200Z,16.70
2018-03-06T04:29:23.993Z,15.07
2018-03-06T04:31:52.004Z,17.73
2018-03-06T04:34:20.764Z,18.62
2018-03-06T04:36:48.783Z,15.10
2018-03-06T04:39:17.561Z,17.67
2018-03-06T04:41:45.600Z,18.70
2018-03-06T04:44:13.609Z,17.25
2018-03-06T04:46:41.628Z,17.25
2018-03-06T04:49:10.407Z,18.40
2018-03-06T04:51:38.420Z,18.77
2018-03-06T04:54:06.449Z,13.85
2018-03-06T04:56:34.458Z,15.68
2018-03-06T04:59:02.466Z,15.57
2018-03-06T05:01:31.249Z,15.40
2018-03-06T05:03:59.244Z,20.45
2018-03-06T05:06:28.020Z,17.52
2018-03-06T05:08:56.044Z,18.73
2018-03-06T05:11:24.045Z,18.23
2018-03-06T05:13:52.064Z,22.73
2018-03-06T05:16:20.072Z,19.02
2018-03-06T05:18:48.832Z,19.23
2018-03-06T05:21:16.836Z,17.95
2018-03-06T05:23:44.848Z,15.07
2018-03-06T05:26:13.619Z,15.57
2018-03-06T05:28:41.641Z,17.37
2018-03-06T05:31:09.668Z,15.95
2018-03-06T05:33:37.677Z,18.85
2018-03-06T05:36:05.692Z,20.05
2018-03-06T05:38:33.705Z,19.42
2018-03-06T05:41:01.701Z,18.85
2018-03-06T05:43:30.516Z,18.05
2018-03-06T05:45:58.532Z,17.10
2018-03-06T05:48:27.302Z,18.02
2018-03-06T05:50:55.312Z,15.35
2018-03-06T05:53:24.109Z,17.95
2018-03-06T05:55:52.878Z,20.23
2018-03-06T05:58:21.868Z,21.90
2018-03-06T06:00:50.877Z,21.00
2018-03-06T06:03:18.943Z,17.85
2018-03-06T06:05:46.940Z,17.23
2018-03-06T06:08:15.897Z,17.65
2018-03-06T06:10:44.665Z,17.50
2018-03-06T06:13:14.193Z,18.70
2018-03-06T06:15:42.217Z,16.00
2018-03-06T06:18:10.237Z,19.20
2018-03-06T06:20:38.260Z,17.05
2018-03-06T06:23:07.056Z,17.33
2018-03-06T06:25:35.813Z,16.15
2018-03-06T06:28:03.823Z,18.08
2018-03-06T06:30:31.832Z,21.65
2018-03-06T06:33:00.592Z,17.58
2018-03-06T06:35:28.600Z,19.45
2018-03-06T06:37:57.380Z,21.52
2018-03-06T06:40:25.388Z,19.85
2018-03-06T06:42:54.169Z,20.15
2018-03-06T06:45:22.177Z,19.02
2018-03-06T06:47:50.940Z,16.67
2018-03-06T06:50:18.952Z,19.42
2018-03-06T06:52:46.968Z,18.12
2018-03-06T06:55:14.957Z,17.60
2018-03-06T06:57:42.963Z,21.15
2018-03-06T07:00:10.980Z,21.42
2018-03-06T07:02:38.989Z,18.62
2018-03-06T07:05:07.000Z,21.08
2018-03-06T07:07:35.041Z,18.92
2018-03-06T07:10:03.831Z,19.20
2018-03-06T07:12:31.832Z,20.40
2018-03-06T07:14:59.848Z,18.12
2018-03-06T07:17:27.851Z,14.70
2018-03-06T07:19:55.853Z,17.08
2018-03-06T07:22:23.848Z,18.73
2018-03-06T07:24:52.636Z,18.85
2018-03-06T07:27:20.650Z,16.92
2018-03-06T07:29:49.421Z,20.70
2018-03-06T07:32:17.428Z,16.87
2018-03-06T07:34:46.200Z,18.23
2018-03-06T07:37:14.200Z,18.50
2018-03-06T07:39:42.978Z,16.73
2018-03-06T07:42:10.998Z,18.95
2018-03-06T07:44:39.764Z,14.48
2018-03-06T07:47:07.777Z,16.60
2018-03-06T07:49:36.563Z,17.90
2018-03-06T07:52:04.559Z,16.00
2018-03-06T07:54:33.332Z,16.67
2018-03-06T07:57:01.340Z,18.45
2018-03-06T07:59:30.111Z,17.35
2018-03-06T08:01:58.115Z,17.62
2018-03-06T08:04:26.892Z,21.33
2018-03-06T08:06:54.897Z,17.27
2018-03-06T08:09:22.911Z,21.62
2018-03-06T08:11:50.912Z,19.08
2018-03-06T08:14:18.915Z,20.92
2018-03-06T08:16:46.925Z,21.98
2018-03-06T08:19:14.928Z,19.60
2018-03-06T08:21:44.087Z,16.92
2018-03-06T08:24:12.097Z,18.05
2018-03-06T08:26:41.629Z,17.62
2018-03-06T08:29:09.640Z,17.62
2018-03-06T08:31:37.685Z,18.08
2018-03-06T08:34:05.692Z,19.48
2018-03-06T08:36:33.688Z,17.92
2018-03-06T08:39:01.712Z,19.40
2018-03-06T08:41:29.717Z,19.40
2018-03-06T08:43:57.720Z,18.67
2018-03-06T08:46:26.493Z,18.33
2018-03-06T08:48:54.508Z,17.55
2018-03-06T08:51:23.261Z,17.50
2018-03-06T08:53:51.268Z,18.70
2018-03-06T08:56:20.052Z,19.55
2018-03-06T08:58:48.040Z,17.83
2018-03-06T09:01:16.053Z,18.12
2018-03-06T09:03:44.819Z,16.58
2018-03-06T09:06:12.833Z,16.33
2018-03-06T09:08:41.616Z,17.45
2018-03-06T09:11:09.624Z,17.60
2018-03-06T09:13:37.616Z,18.80
2018-03-06T09:16:05.624Z,15.55
2018-03-06T09:18:33.633Z,18.98
2018-03-06T09:21:01.642Z,17.73
2018-03-06T09:23:30.441Z,18.33
2018-03-06T09:25:59.218Z,16.15
2018-03-06T09:28:27.216Z,17.73
2018-03-06T09:30:55.219Z,17.90
2018-03-06T09:33:23.237Z,17.12
2018-03-06T09:35:51.239Z,16.77
2018-03-06T09:38:19.245Z,20.12
2018-03-06T09:40:47.257Z,17.48
2018-03-06T09:43:15.258Z,19.05
2018-03-06T09:45:43.277Z,17.12
2018-03-06T09:48:11.284Z,16.08
2018-03-06T09:50:39.281Z,19.27
2018-03-06T09:53:08.060Z,16.48
2018-03-06T09:55:36.072Z,16.25
2018-03-06T09:58:04.077Z,15.88
2018-03-06T10:00:32.088Z,18.42
2018-03-06T10:03:00.103Z,15.45
2018-03-06T10:05:28.868Z,16.70
2018-03-06T10:07:56.878Z,17.23
2018-03-06T10:10:24.888Z,17.95
2018-03-06T10:12:52.880Z,17.73
2018-03-06T10:15:20.892Z,16.30
2018-03-06T10:17:48.900Z,15.73
2018-03-06T10:20:18.403Z,18.73
2018-03-06T10:22:46.412Z,15.40
2018-03-06T10:25:15.187Z,18.98
2018-03-06T10:27:43.184Z,16.85
2018-03-06T10:30:11.198Z,15.82
2018-03-06T10:32:39.208Z,15.73
2018-03-06T10:35:07.212Z,18.52
2018-03-06T10:37:35.229Z,14.98
2018-03-06T10:40:04.005Z,16.98
2018-03-06T10:42:32.009Z,17.77
2018-03-06T10:45:00.796Z,17.08
2018-03-06T10:47:28.812Z,17.67
2018-03-06T10:49:56.812Z,16.77
2018-03-06T10:52:24.828Z,16.83
2018-03-06T10:54:52.836Z,17.10
2018-03-06T10:57:20.828Z,18.33
2018-03-06T10:59:49.610Z,17.52
2018-03-06T11:02:17.627Z,17.10
2018-03-06T11:04:46.388Z,19.50
2018-03-06T11:07:14.396Z,18.98
2018-03-06T11:09:43.175Z,14.93
2018-03-06T11:12:11.173Z,18.45
2018-03-06T11:14:39.195Z,16.42
2018-03-06T11:17:07.213Z,17.17
2018-03-06T11:19:35.212Z,17.30
2018-03-06T11:22:03.213Z,15.93
2018-03-06T11:24:31.988Z,17.37
2018-03-06T11:26:59.991Z,16.02
2018-03-06T11:29:28.760Z,17.70
2018-03-06T11:31:56.764Z,17.87
2018-03-06T11:34:25.529Z,18.75
2018-03-06T11:36:53.545Z,18.45
2018-03-06T11:39:21.561Z,15.23
2018-03-06T11:41:49.558Z,18.12
2018-03-06T11:44:17.576Z,17.05
2018-03-06T11:46:45.583Z,17.95
2018-03-06T11:49:14.345Z,16.52
2018-03-06T11:51:42.354Z,16.90
2018-03-06T11:54:10.439Z,20.52
2018-03-06T11:56:38.441Z,17.00
2018-03-06T11:59:07.232Z,17.02
2018-03-06T12:01:35.241Z,17.10
2018-03-06T12:04:03.236Z,15.95
2018-03-06T12:06:31.253Z,16.48
2018-03-06T12:08:59.261Z,17.62
2018-03-06T12:11:27.256Z,18.83
2018-03-06T12:13:56.029Z,15.73
2018-03-06T12:16:24.041Z,15.05
2018-03-06T12:18:52.799Z,18.45
2018-03-06T12:21:21.567Z,17.62
2018-03-06T12:23:49.577Z,19.80
2018-03-06T12:26:17.567Z,16.23
2018-03-06T12:28:45.581Z,19.83
2018-03-06T12:31:14.351Z,19.98
2018-03-06T12:33:42.399Z,20.27
2018-03-06T12:36:10.405Z,20.50
2018-03-06T12:38:38.420Z,17.05
2018-03-06T12:41:06.416Z,19.00
2018-03-06T12:43:35.201Z,20.75
2018-03-06T12:46:03.224Z,15.82
2018-03-06T12:48:31.977Z,20.05
2018-03-06T12:50:59.977Z,18.20
2018-03-06T12:53:28.748Z,17.73
2018-03-06T12:55:56.748Z,17.92
2018-03-06T12:58:26.261Z,17.15
2018-03-06T13:00:54.268Z,17.40
2018-03-06T13:03:23.028Z,19.05
2018-03-06T13:05:51.032Z,17.15
2018-03-06T13:08:19.049Z,19.90
2018-03-06T13:10:47.817Z,18.83
2018-03-06T13:13:15.824Z,19.62
2018-03-06T13:15:44.605Z,17.33
2018-03-06T13:18:14.105Z,20.02
2018-03-06T13:20:42.120Z,19.00
2018-03-06T13:23:10.916Z,17.08
2018-03-06T13:25:38.925Z,17.80
2018-03-06T13:28:06.932Z,18.42
2018-03-06T13:30:34.936Z,18.00
2018-03-06T13:33:02.932Z,18.95
2018-03-06T13:35:30.937Z,16.50
2018-03-06T13:37:59.717Z,18.67
2018-03-06T13:40:27.721Z,19.15
2018-03-06T13:42:56.505Z,19.48
2018-03-06T13:45:24.542Z,21.50
2018-03-06T13:47:52.537Z,18.62
2018-03-06T13:50:20.553Z,16.02
2018-03-06T13:52:48.562Z,16.85
2018-03-06T13:55:17.320Z,19.08
2018-03-06T13:57:45.324Z,18.85
2018-03-06T14:00:13.331Z,18.70
2018-03-06T14:02:42.096Z,19.50
2018-03-06T14:05:10.120Z,17.33
2018-03-06T14:07:38.186Z,17.70
2018-03-06T14:10:06.124Z,18.73
2018-03-06T14:12:34.132Z,21.55
2018-03-06T14:15:02.145Z,20.00
2018-03-06T14:17:30.905Z,20.83
2018-03-06T14:19:58.908Z,19.05
2018-03-06T14:22:26.912Z,19.92
2018-03-06T14:24:55.677Z,20.23
2018-03-06T14:27:23.684Z,19.60
2018-03-06T14:29:52.456Z,18.20
2018-03-06T14:32:20.476Z,21.35
2018-03-06T14:34:48.456Z,21.55
2018-03-06T14:37:17.232Z,22.05
2018-03-06T14:39:45.228Z,20.62
2018-03-06T14:42:14.000Z,21.83
2018-03-06T14:44:42.017Z,20.92
2018-03-06T14:47:10.772Z,21.10
2018-03-06T14:49:38.788Z,20.05
2018-03-06T14:52:06.801Z,22.33
2018-03-06T14:54:34.825Z,20.98
2018-03-06T14:57:02.824Z,21.73
2018-03-06T14:59:30.866Z,21.92
2018-03-06T15:01:58.872Z,26.27
2018-03-06T15:04:26.880Z,19.85
2018-03-06T15:06:54.899Z,20.70
2018-03-06T15:09:23.648Z,21.05
2018-03-06T15:11:51.787Z,21.23
2018-03-06T15:14:19.796Z,20.35
2018-03-06T15:16:47.794Z,22.05
2018-03-06T15:19:15.801Z,17.55
2018-03-06T15:21:43.833Z,22.77
2018-03-06T15:24:12.563Z,21.00
2018-03-06T15:26:40.581Z,23.58
2018-03-06T15:29:09.364Z,22.00
2018-03-06T15:31:37.367Z,18.90
2018-03-06T15:34:06.142Z,24.23
2018-03-06T15:36:34.144Z,22.77
2018-03-06T15:39:02.903Z,20.77
2018-03-06T15:41:30.925Z,20.83
2018-03-06T15:43:58.937Z,21.62
2018-03-06T15:46:26.924Z,22.23
2018-03-06T15:48:54.937Z,20.42
2018-03-06T15:51:22.945Z,18.90
2018-03-06T15:53:50.932Z,21.85
2018-03-06T15:56:18.942Z,22.42
2018-03-06T15:58:47.712Z,23.83
2018-03-06T16:01:15.709Z,21.77
2018-03-06T16:03:43.711Z,19.33
2018-03-06T16:06:11.769Z,23.02
2018-03-06T16:08:39.773Z,18.65
2018-03-06T16:11:07.821Z,22.98
2018-03-06T16:13:35.829Z,19.98
2018-03-06T16:16:04.597Z,20.02
2018-03-06T16:18:32.605Z,21.87
2018-03-06T16:21:01.380Z,22.05
2018-03-06T16:23:29.367Z,20.17
2018-03-06T16:25:57.368Z,20.48
2018-03-06T16:28:26.140Z,23.50
2018-03-06T16:30:54.135Z,21.80
2018-03-06T16:33:22.144Z,20.10
2018-03-06T16:35:50.919Z,23.70
2018-03-06T16:38:18.916Z,24.05
2018-03-06T16:40:46.929Z,18.08
2018-03-06T16:43:14.937Z,21.20
2018-03-06T16:45:42.937Z,21.87
2018-03-06T16:48:10.949Z,21.20
2018-03-06T16:50:39.753Z,19.98
2018-03-06T16:53:07.742Z,20.73
2018-03-06T16:55:35.744Z,20.20
2018-03-06T16:58:03.748Z,20.75
2018-03-06T17:00:31.744Z,23.65
2018-03-06T17:02:59.752Z,20.48
2018-03-06T17:05:27.761Z,21.55
2018-03-06T17:07:56.516Z,18.87
2018-03-06T17:10:24.532Z,18.17
2018-03-06T17:12:52.537Z,20.45
2018-03-06T17:15:20.528Z,20.17
2018-03-06T17:17:48.541Z,20.88
2018-03-06T17:20:16.550Z,20.50
2018-03-06T17:22:44.535Z,21.73
2018-03-06T17:25:12.548Z,23.42
2018-03-06T17:27:40.564Z,24.23
2018-03-06T17:30:08.560Z,21.17
2018-03-06T17:32:36.573Z,25.52
2018-03-06T17:35:05.348Z,23.38
2018-03-06T17:37:33.345Z,20.35
2018-03-06T17:40:01.354Z,23.95
2018-03-06T17:42:30.127Z,23.67
2018-03-06T17:44:58.124Z,19.45
2018-03-06T17:47:26.902Z,24.15
2018-03-06T17:49:54.908Z,24.15
2018-03-06T17:52:23.714Z,24.20
2018-03-06T17:54:51.688Z,20.58
2018-03-06T17:57:19.698Z,23.73
2018-03-06T17:59:47.697Z,22.40
2018-03-06T18:02:15.701Z,26.17
2018-03-06T18:04:43.709Z,25.10
2018-03-06T18:07:11.723Z,24.83
2018-03-06T18:09:40.509Z,25.02
2018-03-06T18:12:08.573Z,26.30
2018-03-06T18:14:36.621Z,23.33
2018-03-06T18:17:04.616Z,21.60
2018-03-06T18:19:32.615Z,25.27
2018-03-06T18:22:00.618Z,24.12
2018-03-06T18:24:28.620Z,28.85
2018-03-06T18:26:57.392Z,21.98
2018-03-06T18:29:25.393Z,24.20
2018-03-06T18:31:54.162Z,23.87
2018-03-06T18:34:22.164Z,25.12
2018-03-06T18:36:50.239Z,21.95
2018-03-06T18:39:18.204Z,23.33
2018-03-06T18:41:46.214Z,24.40
2018-03-06T18:44:14.212Z,24.55
2018-03-06T18:46:42.987Z,24.75
2018-03-06T18:49:11.055Z,24.52
2018-03-06T18:51:39.007Z,24.73
2018-03-06T18:54:07.017Z,24.90
2018-03-06T18:56:35.027Z,24.35
2018-03-06T18:59:03.030Z,27.35
2018-03-06T19:01:57.445Z,27.13
2018-03-06T19:04:37.360Z,24.77
2018-03-06T19:07:07.305Z,23.33
2018-03-06T19:09:35.309Z,27.17
2018-03-06T19:12:03.309Z,29.55
2018-03-06T19:14:31.340Z,32.10
2018-03-06T19:16:59.349Z,30.42
2018-03-06T19:19:28.108Z,28.20
2018-03-06T19:21:56.112Z,29.10
2018-03-06T19:24:24.121Z,27.55
2018-03-06T19:26:52.884Z,26.92
2018-03-06T19:29:20.884Z,28.87
2018-03-06T19:31:48.897Z,29.40
2018-03-06T19:34:16.885Z,28.90
2018-03-06T19:36:44.896Z,26.42
2018-03-06T19:39:12.896Z,25.42
2018-03-06T19:41:40.892Z,27.50
2018-03-06T19:44:09.680Z,28.17
2018-03-06T19:46:37.718Z,29.25
2018-03-06T19:49:05.713Z,28.45
2018-03-06T19:51:33.724Z,29.70
2018-03-06T19:54:01.733Z,27.62
2018-03-06T19:56:29.721Z,24.48
2018-03-06T19:58:58.492Z,29.00
2018-03-06T20:01:26.509Z,27.08
2018-03-06T20:03:54.492Z,27.83
2018-03-06T20:06:23.264Z,31.27
2018-03-06T20:08:51.268Z,28.27
2018-03-06T20:11:20.029Z,28.17
2018-03-06T20:13:48.028Z,27.52
2018-03-06T20:16:16.036Z,25.37
2018-03-06T20:18:44.795Z,29.15
2018-03-06T20:21:12.805Z,31.30
2018-03-06T20:23:40.813Z,28.50
2018-03-06T20:26:09.572Z,25.42
2018-03-06T20:28:37.596Z,26.00
2018-03-06T20:31:11.244Z,25.62
2018-03-06T20:33:39.254Z,28.98
2018-03-06T20:36:07.276Z,26.37
2018-03-06T20:38:41.672Z,25.92
2018-03-06T20:41:09.680Z,28.27
2018-03-06T20:43:38.435Z,27.65
2018-03-06T20:46:12.041Z,24.40
2018-03-06T20:48:40.040Z,26.42
2018-03-06T20:51:08.037Z,22.85
2018-03-06T20:53:41.739Z,25.55
2018-03-06T20:56:09.753Z,24.42
2018-03-06T20:58:37.748Z,26.33
2018-03-06T21:01:06.520Z,23.38
2018-03-06T21:03:34.528Z,23.23
2018-03-06T21:06:03.292Z,27.62
2018-03-06T21:08:31.306Z,24.87
2018-03-06T21:10:59.312Z,25.25
2018-03-06T21:13:27.304Z,25.25
2018-03-06T21:15:55.316Z,24.83
2018-03-06T21:18:23.316Z,25.17
2018-03-06T21:20:51.308Z,24.60
2018-03-06T21:23:19.313Z,22.60
2018-03-06T21:25:48.088Z,23.67
2018-03-06T21:28:16.092Z,23.65
2018-03-06T21:30:44.107Z,27.62
2018-03-06T21:33:12.111Z,23.45
2018-03-06T21:35:40.100Z,25.70
2018-03-06T21:38:08.109Z,25.33
2018-03-06T21:40:36.162Z,21.65
2018-03-06T21:43:04.878Z,24.33
2018-03-06T21:45:32.889Z,22.17
2018-03-06T21:48:01.688Z,22.52
2018-03-06T21:50:30.441Z,21.77
2018-03-06T21:52:58.449Z,25.60
2018-03-06T21:55:26.452Z,22.48
2018-03-06T21:57:55.218Z,24.85
2018-03-06T22:00:23.220Z,22.95
2018-03-06T22:02:51.231Z,23.08
2018-03-06T22:05:19.993Z,24.23
2018-03-06T22:07:47.997Z,22.95
2018-03-06T22:10:16.777Z,21.15
2018-03-06T22:12:44.769Z,25.55
2018-03-06T22:15:12.772Z,19.92
2018-03-06T22:17:41.544Z,23.30
2018-03-06T22:20:09.538Z,22.90
2018-03-06T22:22:37.545Z,21.98
2018-03-06T22:25:06.316Z,23.20
2018-03-06T22:27:34.316Z,21.25
2018-03-06T22:30:03.085Z,21.98
2018-03-06T22:32:31.094Z,21.12
2018-03-06T22:34:59.084Z,20.80
2018-03-06T22:37:27.872Z,23.33
2018-03-06T22:39:55.877Z,22.65
2018-03-06T22:42:24.636Z,23.35
2018-03-06T22:44:52.641Z,24.23
2018-03-06T22:47:20.648Z,21.45
2018-03-06T22:49:48.640Z,24.20
2018-03-06T22:52:16.645Z,23.02
2018-03-06T22:54:44.656Z,25.95
2018-03-06T22:57:12.649Z,25.70
2018-03-06T22:59:40.656Z,21.73
2018-03-06T23:02:09.428Z,25.90
2018-03-06T23:04:37.430Z,24.15
2018-03-06T23:07:05.436Z,25.73
2018-03-06T23:09:33.555Z,22.50
2018-03-06T23:12:01.552Z,23.23
2018-03-06T23:14:29.565Z,25.92
2018-03-06T23:16:58.337Z,21.48
2018-03-06T23:19:26.328Z,23.17
2018-03-06T23:21:54.344Z,22.58
2018-03-06T23:24:22.341Z,22.20
2018-03-06T23:26:50.352Z,23.00
2018-03-06T23:29:18.368Z,22.75
2018-03-06T23:31:46.375Z,20.75
2018-03-06T23:34:15.140Z,23.73
2018-03-06T23:36:43.912Z,24.45
2018-03-06T23:39:11.920Z,24.33
2018-03-06T23:41:39.913Z,24.05
2018-03-06T23:44:07.921Z,25.42
2018-03-06T23:46:36.680Z,23.42
2018-03-06T23:49:04.688Z,23.48
2018-03-06T23:51:33.445Z,23.12
2018-03-06T23:54:01.456Z,27.25
2018-03-06T23:56:29.483Z,23.60
2018-03-06T23:58:58.216Z,23.65
